sensor_id;sensor_type;location;lat;lon;timestamp;temperature;humidity
9802;DHT22;4940;50.900;4.672;2023-06-04T00:00:09;14.30;85.60
9802;DHT22;4940;50.900;4.672;2023-06-04T00:02:37;14.10;85.80
9802;DHT22;4940;50.900;4.672;2023-06-04T00:05:06;14.10;86.00
9802;DHT22;4940;50.900;4.672;2023-06-04T00:07:34;14.10;86.30
9802;DHT22;4940;50.900;4.672;2023-06-04T00:10:01;14.00;86.30
9802;DHT22;4940;50.900;4.672;2023-06-04T00:22:20;13.80;87.00
9802;DHT22;4940;50.900;4.672;2023-06-04T00:29:43;13.70;87.40
9802;DHT22;4940;50.900;4.672;2023-06-04T00:39:35;13.50;88.20
9802;DHT22;4940;50.900;4.672;2023-06-04T00:42:02;13.50;88.50
9802;DHT22;4940;50.900;4.672;2023-06-04T00:44:29;13.70;88.80
9802;DHT22;4940;50.900;4.672;2023-06-04T00:46:56;13.40;88.80
9802;DHT22;4940;50.900;4.672;2023-06-04T00:49:24;13.40;88.80
9802;DHT22;4940;50.900;4.672;2023-06-04T00:51:51;13.30;89.00
9802;DHT22;4940;50.900;4.672;2023-06-04T00:54:19;13.30;89.10
9802;DHT22;4940;50.900;4.672;2023-06-04T00:56:49;13.30;89.40
9802;DHT22;4940;50.900;4.672;2023-06-04T00:59:17;13.20;89.60
9802;DHT22;4940;50.900;4.672;2023-06-04T01:01:48;13.20;89.80
9802;DHT22;4940;50.900;4.672;2023-06-04T01:04:21;13.10;89.90
9802;DHT22;4940;50.900;4.672;2023-06-04T01:06:52;13.10;90.00
9802;DHT22;4940;50.900;4.672;2023-06-04T01:09:21;13.10;90.10
9802;DHT22;4940;50.900;4.672;2023-06-04T01:11:49;13.00;90.10
9802;DHT22;4940;50.900;4.672;2023-06-04T01:14:16;13.00;90.20
9802;DHT22;4940;50.900;4.672;2023-06-04T01:16:48;12.90;90.20
9802;DHT22;4940;50.900;4.672;2023-06-04T01:19:43;12.90;90.30
9802;DHT22;4940;50.900;4.672;2023-06-04T01:22:24;12.90;90.30
9802;DHT22;4940;50.900;4.672;2023-06-04T01:25:01;12.80;90.30
9802;DHT22;4940;50.900;4.672;2023-06-04T01:27:30;12.80;90.50
9802;DHT22;4940;50.900;4.672;2023-06-04T01:30:01;12.70;90.50
9802;DHT22;4940;50.900;4.672;2023-06-04T01:32:29;12.70;90.50
9802;DHT22;4940;50.900;4.672;2023-06-04T01:34:58;12.80;90.60
9802;DHT22;4940;50.900;4.672;2023-06-04T01:44:49;12.60;91.00
9802;DHT22;4940;50.900;4.672;2023-06-04T01:49:44;12.50;91.10
9802;DHT22;4940;50.900;4.672;2023-06-04T01:57:07;12.50;91.20
9802;DHT22;4940;50.900;4.672;2023-06-04T01:59:35;12.40;91.30
9802;DHT22;4940;50.900;4.672;2023-06-04T02:02:06;12.40;91.30
9802;DHT22;4940;50.900;4.672;2023-06-04T02:04:33;12.40;91.30
9802;DHT22;4940;50.900;4.672;2023-06-04T02:14:24;12.30;91.30
9802;DHT22;4940;50.900;4.672;2023-06-04T02:19:21;12.40;91.50
9802;DHT22;4940;50.900;4.672;2023-06-04T02:34:06;12.30;91.80
9802;DHT22;4940;50.900;4.672;2023-06-04T02:36:34;12.10;91.70
9802;DHT22;4940;50.900;4.672;2023-06-04T02:41:29;12.10;91.90
9802;DHT22;4940;50.900;4.672;2023-06-04T02:46:24;12.10;92.00
9802;DHT22;4940;50.900;4.672;2023-06-04T02:48:51;12.00;92.00
9802;DHT22;4940;50.900;4.672;2023-06-04T02:51:19;12.10;92.10
9802;DHT22;4940;50.900;4.672;2023-06-04T02:53:47;11.90;92.10
9802;DHT22;4940;50.900;4.672;2023-06-04T02:58:49;11.90;92.30
9802;DHT22;4940;50.900;4.672;2023-06-04T03:01:20;11.90;92.30
9802;DHT22;4940;50.900;4.672;2023-06-04T03:06:15;11.80;92.50
9802;DHT22;4940;50.900;4.672;2023-06-04T03:11:12;11.70;92.60
9802;DHT22;4940;50.900;4.672;2023-06-04T03:13:40;11.70;92.70
9802;DHT22;4940;50.900;4.672;2023-06-04T03:16:07;11.70;92.80
9802;DHT22;4940;50.900;4.672;2023-06-04T03:28:27;11.30;93.00
9802;DHT22;4940;50.900;4.672;2023-06-04T03:35:50;11.50;93.40
9802;DHT22;4940;50.900;4.672;2023-06-04T03:40:45;11.50;93.60
9802;DHT22;4940;50.900;4.672;2023-06-04T03:45:42;11.40;93.80
9802;DHT22;4940;50.900;4.672;2023-06-04T04:00:26;11.40;94.40
9802;DHT22;4940;50.900;4.672;2023-06-04T04:02:55;11.40;94.50
9802;DHT22;4940;50.900;4.672;2023-06-04T04:20:09;11.60;95.30
9802;DHT22;4940;50.900;4.672;2023-06-04T04:22:40;11.40;95.40
9802;DHT22;4940;50.900;4.672;2023-06-04T04:25:08;11.50;95.50
9802;DHT22;4940;50.900;4.672;2023-06-04T04:30:07;11.50;95.70
9802;DHT22;4940;50.900;4.672;2023-06-04T04:32:35;11.60;95.80
9802;DHT22;4940;50.900;4.672;2023-06-04T04:35:05;11.60;96.00
9802;DHT22;4940;50.900;4.672;2023-06-04T04:37:35;11.60;96.10
9802;DHT22;4940;50.900;4.672;2023-06-04T04:40:06;11.70;96.20
9802;DHT22;4940;50.900;4.672;2023-06-04T04:45:03;11.80;96.50
9802;DHT22;4940;50.900;4.672;2023-06-04T04:54:54;12.00;96.90
9802;DHT22;4940;50.900;4.672;2023-06-04T05:07:13;12.30;97.10
9802;DHT22;4940;50.900;4.672;2023-06-04T05:09:40;12.30;97.10
9802;DHT22;4940;50.900;4.672;2023-06-04T05:12:09;12.40;97.20
9802;DHT22;4940;50.900;4.672;2023-06-04T05:14:37;12.40;97.20
9802;DHT22;4940;50.900;4.672;2023-06-04T05:17:04;12.50;97.30
9802;DHT22;4940;50.900;4.672;2023-06-04T05:22:00;12.60;97.40
9802;DHT22;4940;50.900;4.672;2023-06-04T05:26:55;12.60;97.40
9802;DHT22;4940;50.900;4.672;2023-06-04T05:29:24;12.80;97.50
9802;DHT22;4940;50.900;4.672;2023-06-04T05:36:47;13.10;97.70
9802;DHT22;4940;50.900;4.672;2023-06-04T05:46:38;13.80;97.70
9802;DHT22;4940;50.900;4.672;2023-06-04T05:51:33;14.20;97.60
9802;DHT22;4940;50.900;4.672;2023-06-04T05:54:01;14.70;97.70
9802;DHT22;4940;50.900;4.672;2023-06-04T05:56:29;14.60;97.20
9802;DHT22;4940;50.900;4.672;2023-06-04T06:01:24;15.00;96.70
9802;DHT22;4940;50.900;4.672;2023-06-04T06:03:52;15.20;96.60
9802;DHT22;4940;50.900;4.672;2023-06-04T06:08:47;15.30;96.10
9802;DHT22;4940;50.900;4.672;2023-06-04T06:13:43;15.90;95.80
9802;DHT22;4940;50.900;4.672;2023-06-04T06:16:10;16.10;95.50
9802;DHT22;4940;50.900;4.672;2023-06-04T06:18:37;16.30;95.40
9802;DHT22;4940;50.900;4.672;2023-06-04T06:21:06;16.50;95.30
9802;DHT22;4940;50.900;4.672;2023-06-04T06:28:29;16.90;94.40
9802;DHT22;4940;50.900;4.672;2023-06-04T06:33:24;17.20;94.20
9802;DHT22;4940;50.900;4.672;2023-06-04T06:35:51;17.40;94.00
9802;DHT22;4940;50.900;4.672;2023-06-04T06:38:20;17.50;93.20
9802;DHT22;4940;50.900;4.672;2023-06-04T06:43:14;17.90;93.30
9802;DHT22;4940;50.900;4.672;2023-06-04T06:45:42;18.00;93.20
9802;DHT22;4940;50.900;4.672;2023-06-04T06:48:09;18.30;92.80
9802;DHT22;4940;50.900;4.672;2023-06-04T06:50:36;18.60;92.70
9802;DHT22;4940;50.900;4.672;2023-06-04T06:53:04;18.90;91.80
9802;DHT22;4940;50.900;4.672;2023-06-04T06:55:32;19.10;92.20
9802;DHT22;4940;50.900;4.672;2023-06-04T06:58:00;19.60;91.50
9802;DHT22;4940;50.900;4.672;2023-06-04T07:00:27;20.00;91.60
9802;DHT22;4940;50.900;4.672;2023-06-04T07:02:54;20.50;91.00
9802;DHT22;4940;50.900;4.672;2023-06-04T07:05:22;20.90;90.20
9802;DHT22;4940;50.900;4.672;2023-06-04T07:07:50;21.40;89.60
9802;DHT22;4940;50.900;4.672;2023-06-04T07:10:18;21.90;88.60
9802;DHT22;4940;50.900;4.672;2023-06-04T07:12:46;22.30;87.00
9802;DHT22;4940;50.900;4.672;2023-06-04T07:15:13;22.80;87.30
9802;DHT22;4940;50.900;4.672;2023-06-04T07:17:41;22.80;86.70
9802;DHT22;4940;50.900;4.672;2023-06-04T07:20:08;23.70;84.10
9802;DHT22;4940;50.900;4.672;2023-06-04T07:22:36;24.20;82.50
9802;DHT22;4940;50.900;4.672;2023-06-04T07:25:03;24.50;81.40
9802;DHT22;4940;50.900;4.672;2023-06-04T07:29:59;25.20;78.30
9802;DHT22;4940;50.900;4.672;2023-06-04T07:32:27;25.40;76.20
9802;DHT22;4940;50.900;4.672;2023-06-04T07:34:54;25.70;75.60
9802;DHT22;4940;50.900;4.672;2023-06-04T07:37:22;25.70;76.00
9802;DHT22;4940;50.900;4.672;2023-06-04T07:39:49;26.20;75.40
9802;DHT22;4940;50.900;4.672;2023-06-04T07:42:16;26.50;75.00
9802;DHT22;4940;50.900;4.672;2023-06-04T07:44:44;26.50;74.30
9802;DHT22;4940;50.900;4.672;2023-06-04T07:47:12;26.90;73.70
9802;DHT22;4940;50.900;4.672;2023-06-04T07:49:40;27.20;73.30
9802;DHT22;4940;50.900;4.672;2023-06-04T07:52:07;27.90;71.90
9802;DHT22;4940;50.900;4.672;2023-06-04T07:54:34;28.20;69.90
9802;DHT22;4940;50.900;4.672;2023-06-04T07:57:02;28.60;69.80
9802;DHT22;4940;50.900;4.672;2023-06-04T07:59:29;28.80;69.30
9802;DHT22;4940;50.900;4.672;2023-06-04T08:01:56;28.80;68.90
9802;DHT22;4940;50.900;4.672;2023-06-04T08:04:25;29.20;66.70
9802;DHT22;4940;50.900;4.672;2023-06-04T08:06:52;29.40;65.50
9802;DHT22;4940;50.900;4.672;2023-06-04T08:09:21;29.40;65.30
9802;DHT22;4940;50.900;4.672;2023-06-04T08:11:49;29.40;64.50
9802;DHT22;4940;50.900;4.672;2023-06-04T08:14:16;29.60;63.60
9802;DHT22;4940;50.900;4.672;2023-06-04T08:16:44;29.70;64.00
9802;DHT22;4940;50.900;4.672;2023-06-04T08:19:11;30.10;62.50
9802;DHT22;4940;50.900;4.672;2023-06-04T08:21:40;30.10;62.50
9802;DHT22;4940;50.900;4.672;2023-06-04T08:24:08;30.20;63.60
9802;DHT22;4940;50.900;4.672;2023-06-04T08:26:36;30.60;62.20
9802;DHT22;4940;50.900;4.672;2023-06-04T08:29:03;30.90;61.90
9802;DHT22;4940;50.900;4.672;2023-06-04T08:31:31;30.90;60.30
9802;DHT22;4940;50.900;4.672;2023-06-04T08:33:58;31.10;60.80
9802;DHT22;4940;50.900;4.672;2023-06-04T08:36:27;31.20;60.60
9802;DHT22;4940;50.900;4.672;2023-06-04T08:38:55;31.40;59.50
9802;DHT22;4940;50.900;4.672;2023-06-04T08:41:28;31.40;59.90
9802;DHT22;4940;50.900;4.672;2023-06-04T08:43:56;31.60;59.50
9802;DHT22;4940;50.900;4.672;2023-06-04T08:46:24;31.70;60.00
9802;DHT22;4940;50.900;4.672;2023-06-04T08:48:52;31.90;58.70
9802;DHT22;4940;50.900;4.672;2023-06-04T08:51:22;31.80;58.00
9802;DHT22;4940;50.900;4.672;2023-06-04T08:53:49;31.70;58.10
9802;DHT22;4940;50.900;4.672;2023-06-04T08:56:21;31.70;57.10
9802;DHT22;4940;50.900;4.672;2023-06-04T08:58:48;31.70;57.70
9802;DHT22;4940;50.900;4.672;2023-06-04T09:01:16;31.80;58.70
9802;DHT22;4940;50.900;4.672;2023-06-04T09:03:44;31.70;59.10
9802;DHT22;4940;50.900;4.672;2023-06-04T09:06:12;32.00;59.40
9802;DHT22;4940;50.900;4.672;2023-06-04T09:08:40;32.10;58.70
9802;DHT22;4940;50.900;4.672;2023-06-04T09:11:11;32.40;57.80
9802;DHT22;4940;50.900;4.672;2023-06-04T09:13:43;32.50;56.70
9802;DHT22;4940;50.900;4.672;2023-06-04T09:16:13;32.70;57.20
9802;DHT22;4940;50.900;4.672;2023-06-04T09:18:41;32.90;57.00
9802;DHT22;4940;50.900;4.672;2023-06-04T09:21:09;33.10;55.80
9802;DHT22;4940;50.900;4.672;2023-06-04T09:23:39;33.20;54.00
9802;DHT22;4940;50.900;4.672;2023-06-04T09:26:10;33.10;54.60
9802;DHT22;4940;50.900;4.672;2023-06-04T09:28:41;33.10;55.00
9802;DHT22;4940;50.900;4.672;2023-06-04T09:31:09;33.10;54.40
9802;DHT22;4940;50.900;4.672;2023-06-04T09:33:43;32.80;53.80
9802;DHT22;4940;50.900;4.672;2023-06-04T09:36:11;32.80;54.40
9802;DHT22;4940;50.900;4.672;2023-06-04T09:38:39;32.70;53.80
9802;DHT22;4940;50.900;4.672;2023-06-04T09:41:11;32.70;53.40
9802;DHT22;4940;50.900;4.672;2023-06-04T09:43:40;32.70;53.60
9802;DHT22;4940;50.900;4.672;2023-06-04T09:46:12;32.70;53.20
9802;DHT22;4940;50.900;4.672;2023-06-04T09:48:40;32.70;53.40
9802;DHT22;4940;50.900;4.672;2023-06-04T09:51:09;32.80;53.60
9802;DHT22;4940;50.900;4.672;2023-06-04T09:53:37;32.60;54.90
9802;DHT22;4940;50.900;4.672;2023-06-04T09:56:05;32.70;55.50
9802;DHT22;4940;50.900;4.672;2023-06-04T09:58:34;32.80;53.60
9802;DHT22;4940;50.900;4.672;2023-06-04T10:01:04;33.00;53.50
9802;DHT22;4940;50.900;4.672;2023-06-04T10:03:33;33.00;53.90
9802;DHT22;4940;50.900;4.672;2023-06-04T10:06:03;33.10;52.50
9802;DHT22;4940;50.900;4.672;2023-06-04T10:08:31;33.10;52.30
9802;DHT22;4940;50.900;4.672;2023-06-04T10:11:00;33.00;52.70
9802;DHT22;4940;50.900;4.672;2023-06-04T10:13:29;32.70;51.20
9802;DHT22;4940;50.900;4.672;2023-06-04T10:15:57;32.70;51.90
9802;DHT22;4940;50.900;4.672;2023-06-04T10:18:27;32.60;51.80
9802;DHT22;4940;50.900;4.672;2023-06-04T10:20:55;32.40;51.90
9802;DHT22;4940;50.900;4.672;2023-06-04T10:23:23;32.40;51.40
9802;DHT22;4940;50.900;4.672;2023-06-04T10:25:51;32.30;51.80
9802;DHT22;4940;50.900;4.672;2023-06-04T10:28:20;32.40;52.10
9802;DHT22;4940;50.900;4.672;2023-06-04T10:30:48;32.20;52.20
9802;DHT22;4940;50.900;4.672;2023-06-04T10:33:17;32.30;51.90
9802;DHT22;4940;50.900;4.672;2023-06-04T10:35:47;32.40;51.80
9802;DHT22;4940;50.900;4.672;2023-06-04T10:38:14;32.20;51.70
9802;DHT22;4940;50.900;4.672;2023-06-04T10:40:42;32.10;51.90
9802;DHT22;4940;50.900;4.672;2023-06-04T10:43:10;32.10;52.20
9802;DHT22;4940;50.900;4.672;2023-06-04T10:45:38;32.00;52.90
9802;DHT22;4940;50.900;4.672;2023-06-04T10:48:06;32.30;51.70
9802;DHT22;4940;50.900;4.672;2023-06-04T10:50:35;32.40;52.30
9802;DHT22;4940;50.900;4.672;2023-06-04T10:53:04;32.40;52.70
9802;DHT22;4940;50.900;4.672;2023-06-04T10:55:31;32.40;52.00
9802;DHT22;4940;50.900;4.672;2023-06-04T10:58:01;32.10;51.90
9802;DHT22;4940;50.900;4.672;2023-06-04T11:00:36;32.10;51.60
9802;DHT22;4940;50.900;4.672;2023-06-04T11:03:04;31.80;51.50
9802;DHT22;4940;50.900;4.672;2023-06-04T11:05:36;31.60;51.60
9802;DHT22;4940;50.900;4.672;2023-06-04T11:08:05;31.80;50.90
9802;DHT22;4940;50.900;4.672;2023-06-04T11:10:36;31.80;51.30
9802;DHT22;4940;50.900;4.672;2023-06-04T11:13:04;31.80;50.40
9802;DHT22;4940;50.900;4.672;2023-06-04T11:15:39;31.70;50.30
9802;DHT22;4940;50.900;4.672;2023-06-04T11:18:06;31.50;50.50
9802;DHT22;4940;50.900;4.672;2023-06-04T11:20:34;31.40;51.20
9802;DHT22;4940;50.900;4.672;2023-06-04T11:23:01;31.40;51.80
9802;DHT22;4940;50.900;4.672;2023-06-04T11:25:30;31.50;51.80
9802;DHT22;4940;50.900;4.672;2023-06-04T11:28:00;31.60;51.40
9802;DHT22;4940;50.900;4.672;2023-06-04T11:30:27;31.50;50.60
9802;DHT22;4940;50.900;4.672;2023-06-04T11:33:02;31.50;50.20
9802;DHT22;4940;50.900;4.672;2023-06-04T11:35:29;31.60;50.70
9802;DHT22;4940;50.900;4.672;2023-06-04T11:37:57;31.60;50.50
9802;DHT22;4940;50.900;4.672;2023-06-04T11:40:25;31.50;50.60
9802;DHT22;4940;50.900;4.672;2023-06-04T11:42:55;31.40;50.70
9802;DHT22;4940;50.900;4.672;2023-06-04T11:45:22;31.40;50.60
9802;DHT22;4940;50.900;4.672;2023-06-04T11:47:53;31.10;49.10
9802;DHT22;4940;50.900;4.672;2023-06-04T11:50:21;31.00;49.60
9802;DHT22;4940;50.900;4.672;2023-06-04T11:52:49;31.00;50.20
9802;DHT22;4940;50.900;4.672;2023-06-04T11:55:16;30.90;50.80
9802;DHT22;4940;50.900;4.672;2023-06-04T11:57:46;30.70;50.50
9802;DHT22;4940;50.900;4.672;2023-06-04T12:00:16;30.60;50.30
9802;DHT22;4940;50.900;4.672;2023-06-04T12:02:49;30.60;50.80
9802;DHT22;4940;50.900;4.672;2023-06-04T12:05:18;30.40;50.80
9802;DHT22;4940;50.900;4.672;2023-06-04T12:07:47;30.10;50.70
9802;DHT22;4940;50.900;4.672;2023-06-04T12:10:17;29.90;51.00
9802;DHT22;4940;50.900;4.672;2023-06-04T12:12:44;29.70;52.20
9802;DHT22;4940;50.900;4.672;2023-06-04T12:15:11;29.40;51.90
9802;DHT22;4940;50.900;4.672;2023-06-04T12:17:50;29.50;51.40
9802;DHT22;4940;50.900;4.672;2023-06-04T12:20:18;29.40;52.00
9802;DHT22;4940;50.900;4.672;2023-06-04T12:22:45;29.40;52.50
9802;DHT22;4940;50.900;4.672;2023-06-04T12:25:24;29.50;52.20
9802;DHT22;4940;50.900;4.672;2023-06-04T12:27:52;29.50;51.60
9802;DHT22;4940;50.900;4.672;2023-06-04T12:30:19;29.40;52.30
9802;DHT22;4940;50.900;4.672;2023-06-04T12:32:49;29.40;52.30
9802;DHT22;4940;50.900;4.672;2023-06-04T12:35:17;29.30;52.30
9802;DHT22;4940;50.900;4.672;2023-06-04T12:37:44;29.20;52.60
9802;DHT22;4940;50.900;4.672;2023-06-04T12:40:12;29.10;52.90
9802;DHT22;4940;50.900;4.672;2023-06-04T12:42:39;29.20;52.60
9802;DHT22;4940;50.900;4.672;2023-06-04T12:45:10;29.10;53.00
9802;DHT22;4940;50.900;4.672;2023-06-04T12:47:40;29.00;53.40
9802;DHT22;4940;50.900;4.672;2023-06-04T12:50:10;28.80;53.30
9802;DHT22;4940;50.900;4.672;2023-06-04T12:52:37;28.80;54.10
9802;DHT22;4940;50.900;4.672;2023-06-04T12:55:05;28.80;53.60
9802;DHT22;4940;50.900;4.672;2023-06-04T12:57:32;28.80;54.30
9802;DHT22;4940;50.900;4.672;2023-06-04T13:00:00;28.70;53.30
9802;DHT22;4940;50.900;4.672;2023-06-04T13:02:27;28.60;52.90
9802;DHT22;4940;50.900;4.672;2023-06-04T13:04:54;28.60;53.40
9802;DHT22;4940;50.900;4.672;2023-06-04T13:07:23;28.60;53.40
9802;DHT22;4940;50.900;4.672;2023-06-04T13:09:51;28.50;53.70
9802;DHT22;4940;50.900;4.672;2023-06-04T13:12:19;28.60;53.60
9802;DHT22;4940;50.900;4.672;2023-06-04T13:14:46;28.50;54.20
9802;DHT22;4940;50.900;4.672;2023-06-04T13:17:13;28.40;53.70
9802;DHT22;4940;50.900;4.672;2023-06-04T13:19:41;28.30;53.80
9802;DHT22;4940;50.900;4.672;2023-06-04T13:22:08;28.20;53.30
9802;DHT22;4940;50.900;4.672;2023-06-04T13:24:37;28.20;53.70
9802;DHT22;4940;50.900;4.672;2023-06-04T13:27:04;28.20;54.50
9802;DHT22;4940;50.900;4.672;2023-06-04T13:29:32;28.10;53.10
9802;DHT22;4940;50.900;4.672;2023-06-04T13:32:00;27.90;53.00
9802;DHT22;4940;50.900;4.672;2023-06-04T13:34:28;27.80;54.00
9802;DHT22;4940;50.900;4.672;2023-06-04T13:36:57;27.80;54.00
9802;DHT22;4940;50.900;4.672;2023-06-04T13:39:24;27.90;54.00
9802;DHT22;4940;50.900;4.672;2023-06-04T13:41:53;27.80;54.40
9802;DHT22;4940;50.900;4.672;2023-06-04T13:44:21;27.80;54.40
9802;DHT22;4940;50.900;4.672;2023-06-04T13:46:52;27.80;54.30
9802;DHT22;4940;50.900;4.672;2023-06-04T13:51:46;27.80;53.50
9802;DHT22;4940;50.900;4.672;2023-06-04T13:54:14;27.80;53.80
9802;DHT22;4940;50.900;4.672;2023-06-04T13:56:41;27.70;53.90
9802;DHT22;4940;50.900;4.672;2023-06-04T13:59:09;27.70;54.10
9802;DHT22;4940;50.900;4.672;2023-06-04T14:01:37;27.60;54.40
9802;DHT22;4940;50.900;4.672;2023-06-04T14:04:04;27.60;54.50
9802;DHT22;4940;50.900;4.672;2023-06-04T14:06:32;27.70;53.60
9802;DHT22;4940;50.900;4.672;2023-06-04T14:09:01;27.60;53.40
9802;DHT22;4940;50.900;4.672;2023-06-04T14:11:29;27.60;53.90
9802;DHT22;4940;50.900;4.672;2023-06-04T14:13:58;27.50;53.40
9802;DHT22;4940;50.900;4.672;2023-06-04T14:16:27;27.50;54.20
9802;DHT22;4940;50.900;4.672;2023-06-04T14:18:54;27.50;54.10
9802;DHT22;4940;50.900;4.672;2023-06-04T14:21:21;27.40;53.10
9802;DHT22;4940;50.900;4.672;2023-06-04T14:23:49;27.30;53.70
9802;DHT22;4940;50.900;4.672;2023-06-04T14:26:17;27.40;53.80
9802;DHT22;4940;50.900;4.672;2023-06-04T14:28:44;27.10;53.70
9802;DHT22;4940;50.900;4.672;2023-06-04T14:31:12;27.10;54.80
9802;DHT22;4940;50.900;4.672;2023-06-04T14:33:40;27.00;54.80
9802;DHT22;4940;50.900;4.672;2023-06-04T14:36:08;27.10;54.00
9802;DHT22;4940;50.900;4.672;2023-06-04T14:38:35;27.00;53.70
9802;DHT22;4940;50.900;4.672;2023-06-04T14:41:03;27.10;53.30
9802;DHT22;4940;50.900;4.672;2023-06-04T14:43:30;27.00;53.50
9802;DHT22;4940;50.900;4.672;2023-06-04T14:45:57;26.90;54.00
9802;DHT22;4940;50.900;4.672;2023-06-04T14:48:25;26.80;53.70
9802;DHT22;4940;50.900;4.672;2023-06-04T14:50:53;26.90;53.70
9802;DHT22;4940;50.900;4.672;2023-06-04T14:53:21;26.90;54.20
9802;DHT22;4940;50.900;4.672;2023-06-04T14:55:49;26.90;54.30
9802;DHT22;4940;50.900;4.672;2023-06-04T14:58:17;26.80;53.10
9802;DHT22;4940;50.900;4.672;2023-06-04T15:00:45;26.80;53.60
9802;DHT22;4940;50.900;4.672;2023-06-04T15:03:12;26.80;53.30
9802;DHT22;4940;50.900;4.672;2023-06-04T15:05:40;26.80;53.30
9802;DHT22;4940;50.900;4.672;2023-06-04T15:08:08;26.70;53.10
9802;DHT22;4940;50.900;4.672;2023-06-04T15:10:36;26.60;52.30
9802;DHT22;4940;50.900;4.672;2023-06-04T15:13:03;26.70;53.20
9802;DHT22;4940;50.900;4.672;2023-06-04T15:15:30;26.60;53.50
9802;DHT22;4940;50.900;4.672;2023-06-04T15:17:58;26.60;53.00
9802;DHT22;4940;50.900;4.672;2023-06-04T15:20:25;26.50;52.60
9802;DHT22;4940;50.900;4.672;2023-06-04T15:22:54;26.40;52.60
9802;DHT22;4940;50.900;4.672;2023-06-04T15:25:22;26.30;52.40
9802;DHT22;4940;50.900;4.672;2023-06-04T15:27:50;26.30;52.90
9802;DHT22;4940;50.900;4.672;2023-06-04T15:30:17;26.30;53.40
9802;DHT22;4940;50.900;4.672;2023-06-04T15:32:46;26.40;54.30
9802;DHT22;4940;50.900;4.672;2023-06-04T15:35:13;26.30;54.20
9802;DHT22;4940;50.900;4.672;2023-06-04T15:37:41;26.40;54.10
9802;DHT22;4940;50.900;4.672;2023-06-04T15:40:08;26.30;54.10
9802;DHT22;4940;50.900;4.672;2023-06-04T15:42:38;26.30;54.40
9802;DHT22;4940;50.900;4.672;2023-06-04T15:45:06;26.30;53.60
9802;DHT22;4940;50.900;4.672;2023-06-04T15:47:34;26.30;54.20
9802;DHT22;4940;50.900;4.672;2023-06-04T15:50:01;26.20;54.80
9802;DHT22;4940;50.900;4.672;2023-06-04T15:52:28;26.30;54.50
9802;DHT22;4940;50.900;4.672;2023-06-04T15:54:56;26.30;55.10
9802;DHT22;4940;50.900;4.672;2023-06-04T15:57:23;26.20;54.70
9802;DHT22;4940;50.900;4.672;2023-06-04T15:59:52;26.20;54.10
9802;DHT22;4940;50.900;4.672;2023-06-04T16:02:19;26.20;54.60
9802;DHT22;4940;50.900;4.672;2023-06-04T16:04:47;26.20;54.50
9802;DHT22;4940;50.900;4.672;2023-06-04T16:07:14;26.20;55.20
9802;DHT22;4940;50.900;4.672;2023-06-04T16:09:41;26.10;55.60
9802;DHT22;4940;50.900;4.672;2023-06-04T16:12:09;26.10;54.80
9802;DHT22;4940;50.900;4.672;2023-06-04T16:14:36;26.10;55.10
9802;DHT22;4940;50.900;4.672;2023-06-04T16:17:05;26.10;55.80
9802;DHT22;4940;50.900;4.672;2023-06-04T16:19:32;26.10;56.60
9802;DHT22;4940;50.900;4.672;2023-06-04T16:22:00;26.10;56.70
9802;DHT22;4940;50.900;4.672;2023-06-04T16:24:27;25.90;56.00
9802;DHT22;4940;50.900;4.672;2023-06-04T16:26:55;26.00;55.80
9802;DHT22;4940;50.900;4.672;2023-06-04T16:29:22;26.00;55.80
9802;DHT22;4940;50.900;4.672;2023-06-04T16:31:52;25.90;56.00
9802;DHT22;4940;50.900;4.672;2023-06-04T16:34:21;25.90;55.70
9802;DHT22;4940;50.900;4.672;2023-06-04T16:36:48;25.90;55.60
9802;DHT22;4940;50.900;4.672;2023-06-04T16:41:43;25.90;55.50
9802;DHT22;4940;50.900;4.672;2023-06-04T16:44:11;25.80;55.50
9802;DHT22;4940;50.900;4.672;2023-06-04T16:46:39;25.80;56.40
9802;DHT22;4940;50.900;4.672;2023-06-04T16:49:06;25.80;56.50
9802;DHT22;4940;50.900;4.672;2023-06-04T16:51:34;25.80;56.60
9802;DHT22;4940;50.900;4.672;2023-06-04T16:54:02;25.90;57.20
9802;DHT22;4940;50.900;4.672;2023-06-04T16:56:29;25.90;56.80
9802;DHT22;4940;50.900;4.672;2023-06-04T16:58:57;25.70;57.20
9802;DHT22;4940;50.900;4.672;2023-06-04T17:01:24;25.60;57.20
9802;DHT22;4940;50.900;4.672;2023-06-04T17:03:52;25.60;57.70
9802;DHT22;4940;50.900;4.672;2023-06-04T17:06:19;25.50;57.90
9802;DHT22;4940;50.900;4.672;2023-06-04T17:08:48;25.50;58.60
9802;DHT22;4940;50.900;4.672;2023-06-04T17:11:16;25.50;58.10
9802;DHT22;4940;50.900;4.672;2023-06-04T17:13:43;25.50;58.70
9802;DHT22;4940;50.900;4.672;2023-06-04T17:16:10;25.40;58.80
9802;DHT22;4940;50.900;4.672;2023-06-04T17:18:39;25.30;58.20
9802;DHT22;4940;50.900;4.672;2023-06-04T17:21:06;25.30;58.80
9802;DHT22;4940;50.900;4.672;2023-06-04T17:23:35;25.30;58.90
9802;DHT22;4940;50.900;4.672;2023-06-04T17:26:05;25.30;59.10
9802;DHT22;4940;50.900;4.672;2023-06-04T17:28:33;25.20;58.90
9802;DHT22;4940;50.900;4.672;2023-06-04T17:31:00;25.10;58.90
9802;DHT22;4940;50.900;4.672;2023-06-04T17:33:28;25.10;59.30
9802;DHT22;4940;50.900;4.672;2023-06-04T17:35:55;25.10;59.10
9802;DHT22;4940;50.900;4.672;2023-06-04T17:38:23;25.00;59.40
9802;DHT22;4940;50.900;4.672;2023-06-04T17:40:50;25.00;59.40
9802;DHT22;4940;50.900;4.672;2023-06-04T17:43:19;24.90;59.00
9802;DHT22;4940;50.900;4.672;2023-06-04T17:45:46;24.90;59.40
9802;DHT22;4940;50.900;4.672;2023-06-04T17:48:13;24.80;59.60
9802;DHT22;4940;50.900;4.672;2023-06-04T17:50:40;24.80;59.80
9802;DHT22;4940;50.900;4.672;2023-06-04T17:53:07;24.80;60.50
9802;DHT22;4940;50.900;4.672;2023-06-04T17:55:35;24.70;60.30
9802;DHT22;4940;50.900;4.672;2023-06-04T17:58:02;24.80;60.60
9802;DHT22;4940;50.900;4.672;2023-06-04T18:00:31;24.60;60.30
9802;DHT22;4940;50.900;4.672;2023-06-04T18:02:58;24.70;60.60
9802;DHT22;4940;50.900;4.672;2023-06-04T18:05:25;20.30;56.90
9802;DHT22;4940;50.900;4.672;2023-06-04T18:07:53;24.50;60.40
9802;DHT22;4940;50.900;4.672;2023-06-04T18:10:20;24.50;60.00
9802;DHT22;4940;50.900;4.672;2023-06-04T18:12:47;24.50;60.10
9802;DHT22;4940;50.900;4.672;2023-06-04T18:15:15;24.40;60.70
9802;DHT22;4940;50.900;4.672;2023-06-04T18:17:43;24.40;60.50
9802;DHT22;4940;50.900;4.672;2023-06-04T18:20:11;27.00;62.90
9802;DHT22;4940;50.900;4.672;2023-06-04T18:22:38;24.30;61.50
9802;DHT22;4940;50.900;4.672;2023-06-04T18:25:06;24.30;61.20
9802;DHT22;4940;50.900;4.672;2023-06-04T18:27:34;24.30;61.80
9802;DHT22;4940;50.900;4.672;2023-06-04T18:30:02;24.30;61.90
9802;DHT22;4940;50.900;4.672;2023-06-04T18:32:29;24.20;61.20
9802;DHT22;4940;50.900;4.672;2023-06-04T18:34:58;24.20;61.60
9802;DHT22;4940;50.900;4.672;2023-06-04T18:37:25;24.10;62.20
9802;DHT22;4940;50.900;4.672;2023-06-04T18:39:53;24.10;62.10
9802;DHT22;4940;50.900;4.672;2023-06-04T18:42:20;24.00;62.20
9802;DHT22;4940;50.900;4.672;2023-06-04T18:44:48;24.00;62.40
9802;DHT22;4940;50.900;4.672;2023-06-04T18:47:15;23.90;62.50
9802;DHT22;4940;50.900;4.672;2023-06-04T18:49:42;23.90;62.60
9802;DHT22;4940;50.900;4.672;2023-06-04T18:52:11;23.90;62.70
9802;DHT22;4940;50.900;4.672;2023-06-04T18:54:38;23.70;62.90
9802;DHT22;4940;50.900;4.672;2023-06-04T18:57:07;23.70;63.10
9802;DHT22;4940;50.900;4.672;2023-06-04T18:59:38;23.80;63.50
9802;DHT22;4940;50.900;4.672;2023-06-04T19:02:05;23.70;63.60
9802;DHT22;4940;50.900;4.672;2023-06-04T19:04:32;23.80;64.00
9802;DHT22;4940;50.900;4.672;2023-06-04T19:07:00;23.40;63.30
9802;DHT22;4940;50.900;4.672;2023-06-04T19:09:28;23.50;64.20
9802;DHT22;4940;50.900;4.672;2023-06-04T19:11:56;23.50;64.50